• Join FlightAware (Why Join?)
  • Login
  • US Flag 
06:12PM EDT


 

Airport Tracker/Info


-or-


 

Live Flight TrackerFlight Track Log ✈ N1455R ✈ 18-May-2013 ✈ KEWB - KMMU

Flight Track Log - Related Links

Times and Time Zones

All times are in EDT time to prevent confusion due to time zone crossing. See the N1455R flight status page for this flight to view local times or setup timezone preferences in your user account.

Time Position Orientation Groundspeed Altitude Reporting Facility
EDT Latitude Longitude Course Direction KTS MPH feet Rate Location/Type
11:39AM 41.6678 -70.9728 270° West 75 86 700  Level Boston Center
11:40AM 41.6661 -71.0172 267° West 94 108 1,600 600 Climbing Boston Center
11:41AM 41.6622 -71.0453 259° West 105 121 2,000 600 Climbing Boston Center
11:42AM 41.6669 -71.0894 278° West 110 127 2,700 540 Climbing Boston Center
11:43AM 41.6758 -71.1283 287° West 109 125 3,200 540 Climbing Boston Center
11:44AM 41.6806 -71.1642 280° West 106 122 3,800 480 Climbing Boston Center
11:45AM 41.7000 -71.2093 270° West  Level FlightAware Approximate
11:45AM 41.6869 -71.1947 286° West 107 123 4,100  Level Boston Center
11:46AM 41.6981 -71.2611 283° West 126 145 4,100  Level Boston Center
11:47AM 41.7050 -71.3056 282° West 126 145 4,100  Level Boston Center
11:49AM 41.7094 -71.3500 278° West 127 146 4,100 240 Level Boston Center
11:50AM 41.7183 -71.4028 283° West 123 142 4,700 540 Climbing Boston Center
11:51AM 41.7228 -71.4500 277° West 118 136 5,300 540 Climbing Boston Center
11:52AM 41.7192 -71.4861 262° West 103 119 5,900 540 Climbing Boston Center
11:53AM 41.7194 -71.5222 271° West 103 119 6,500 600 Climbing Boston Center
11:54AM 41.7156 -71.5614 262° West 106 122 7,100 600 Climbing Boston Center
11:55AM 41.7117 -71.6058 263° West 123 142 7,700 480 Climbing Boston Center
11:56AM 41.7078 -71.6503 263° West 116 133 8,100 120 Climbing Boston Center
11:57AM 41.7039 -71.6978 264° West 136 157 8,000 -60 Descending Boston Center
11:58AM 41.7000 -71.7478 264° West 134 154 8,000 -60 Level Boston Center
11:58AM 41.6961 -71.7922 263° West 135 155 7,900  Descending Boston Center
11:59AM 41.6944 -71.8450 268° West 134 154 8,000  Climbing Boston Center
12:00PM 41.6883 -71.8869 259° West 132 152 8,000  Level Boston Center
12:01PM 41.6864 -71.9369 267° West 127 146 8,000  Level Boston Center
12:02PM 41.6847 -71.9731 266° West 127 146 8,000  Level Boston Center
12:03PM 41.6786 -72.0342 262° West 127 146 8,000  Level Boston Center
12:04PM 41.6767 -72.0817 267° West 131 151 8,000  Level Boston Center
12:05PM 41.6725 -72.1289 263° West 129 148 8,000  Level Boston Center
12:06PM 41.6706 -72.1761 267° West 128 147 8,000  Level Boston Center
12:07PM 41.6583 -72.2178 249° West 132 152 8,000  Level Boston Center
12:08PM 41.6458 -72.2650 251° West 134 154 8,000  Level Boston Center
12:09PM 41.6333 -72.3094 249° West 132 152 8,000  Level Boston Center
12:10PM 41.6208 -72.3594 252° West 132 152 8,000  Level Boston Center
12:11PM 41.6064 -72.4039 247° West 129 148 8,000  Level Boston Center
12:12PM 41.5958 -72.4483 252° West 127 146 8,000  Level Boston Center
12:13PM 41.5856 -72.4900 252° West 128 147 8,000 -60 Level Boston Center
12:14PM 41.5731 -72.5344 249° West 129 148 7,900 -300 Descending Boston Center
12:15PM 41.5606 -72.5844 252° West 144 166 7,400 -540 Descending Boston Center
12:16PM 41.5458 -72.6342 248° West 148 170 6,900 -300 Descending Boston Center
12:19PM 41.5020 -72.6891 223° Southwest  Level FlightAware Approximate
12:20PM 41.5000 -72.8000 223° Southwest 139 160 6,100  Level New York TRACON
12:21PM 41.4833 -72.8500 246° West 135 155 6,100  Level New York TRACON
12:22PM 41.4667 -72.9000 246° West 135 155 6,100  Level New York TRACON
12:23PM 41.4667 -72.9333 270° West 132 152 6,100  Level New York TRACON
12:24PM 41.4500 -72.9833 246° West 132 152 6,100  Level New York TRACON
12:25PM 41.4333 -73.0333 246° West 133 153 6,100  Level New York TRACON
12:26PM 41.4167 -73.0833 246° West 132 152 6,100  Level New York TRACON
12:27PM 41.4167 -73.1167 270° West 131 151 6,100  Level New York TRACON
12:28PM 41.4000 -73.1667 246° West 132 152 6,100  Level New York TRACON
12:30PM 41.3667 -73.2667 246° West 131 151 6,100  Level New York TRACON
12:31PM 41.3500 -73.3000 236° Southwest 135 155 6,100  Level New York TRACON
12:32PM 41.3500 -73.3500 270° West 137 158 6,100  Level New York TRACON
12:33PM 41.3333 -73.4000 246° West 135 155 6,100  Level New York TRACON
12:34PM 41.3167 -73.4500 246° West 134 154 6,100  Level New York TRACON
12:35PM 41.3000 -73.4833 236° Southwest 133 153 6,100  Level New York TRACON
12:36PM 41.3000 -73.5333 270° West 136 157 6,100  Level New York TRACON
12:37PM 41.2833 -73.5833 246° West 134 154 6,100 -300 Level New York TRACON
12:39PM 41.2739 -73.6692 262° West  Level FlightAware Approximate
12:44PM 41.2500 -73.9500 262° West 140 161 4,100  Level New York TRACON
12:45PM 41.2333 -74.0000 246° West 126 145 4,100  Level New York TRACON
12:46PM 41.2333 -74.0113 270° West  Level FlightAware Approximate
12:47PM 41.2333 -74.0609 270° West  Level FlightAware Approximate
12:47PM 41.2333 -74.1000 270° West 142 163 4,100  Level New York TRACON
12:48PM 41.2290 -74.1101 262° West  Level FlightAware Approximate
12:49PM 41.2241 -74.1592 262° West  Level FlightAware Approximate
12:49PM 41.1833 -74.1500 217° Southwest 124 143 4,100  Level New York TRACON
12:50PM 41.1500 -74.1667 201° Southwest 138 159 3,600 -540 Descending New York TRACON
12:51PM 41.1167 -74.1833 201° Southwest 140 161 3,100 -300 Descending New York TRACON
12:53PM 41.0606 -74.2244 288° West  Level Estimated
12:54PM 41.0167 -74.2000 288° West 139 160 2,500  Level New York TRACON
12:55PM 40.9833 -74.2333 217° Southwest 138 159 2,100 -240 Descending New York TRACON
12:56PM 40.9500 -74.2667 217° Southwest 126 145 2,100 -180 Level New York TRACON
12:58PM 40.8987 -74.3173 217° Southwest  Level Estimated
01:00PM 40.8500 -74.3667 217° Southwest 124 143 1,400  Level New York TRACON
01:02PM 40.7993 -74.4149 163° South  Level Estimated
01:05PM 40.7993 -74.4149 217° Southwest  Level Estimated
01:09PM 40.7993 -74.4149 163° South  Level Estimated
01:10PM 40.7993 -74.4149 163° South  Level Estimated
01:11PM 40.7993 -74.4149 163° South  Level Estimated